createdAt,value
2022-08-07T00:00:03.800Z,100
2022-08-07T00:02:35.736Z,100
2022-08-07T00:02:41.395Z,100
2022-08-07T00:03:03.025Z,100
2022-08-07T00:04:03.650Z,100
2022-08-07T00:05:05.653Z,100
2022-08-07T00:06:01.905Z,100
2022-08-07T00:07:05.392Z,100
2022-08-07T00:08:02.691Z,100
2022-08-07T00:09:22.505Z,100
2022-08-07T00:10:29.958Z,100
2022-08-07T00:11:06.636Z,100
2022-08-07T00:12:02.516Z,100
2022-08-07T00:13:24.205Z,100
2022-08-07T00:14:02.023Z,100
2022-08-07T00:15:01.760Z,100
2022-08-07T00:16:02.387Z,100
2022-08-07T00:17:03.071Z,100
2022-08-07T00:18:03.145Z,100
2022-08-07T00:19:05.869Z,100
2022-08-07T00:20:03.681Z,100
2022-08-07T00:21:55.854Z,100
2022-08-07T00:22:03.418Z,100
2022-08-07T00:23:02.109Z,100
2022-08-07T00:24:01.963Z,100
2022-08-07T00:25:03.029Z,100
2022-08-07T00:26:18.732Z,100
2022-08-07T00:27:09.354Z,100
2022-08-07T00:28:03.050Z,100
2022-08-07T00:29:03.047Z,100
2022-08-07T00:30:01.853Z,100
2022-08-07T00:31:12.589Z,100
2022-08-07T00:32:02.498Z,100
2022-08-07T00:33:02.998Z,100
2022-08-07T00:34:03.314Z,100
2022-08-07T00:35:02.245Z,100
2022-08-07T00:36:02.082Z,100
2022-08-07T00:37:01.917Z,100
2022-08-07T00:38:01.764Z,100
2022-08-07T00:39:01.668Z,100
2022-08-07T00:40:01.985Z,100
2022-08-07T00:41:01.833Z,100
2022-08-07T00:42:05.725Z,100
2022-08-07T00:43:03.002Z,100
2022-08-07T00:44:03.295Z,100
2022-08-07T00:45:07.242Z,100
2022-08-07T00:46:02.362Z,100
2022-08-07T00:47:01.802Z,100
2022-08-07T00:48:10.780Z,100
2022-08-07T00:49:02.362Z,100
2022-08-07T00:50:46.434Z,100
2022-08-07T00:51:02.444Z,100
2022-08-07T00:52:02.447Z,100
2022-08-07T00:53:02.349Z,100
2022-08-07T00:54:02.218Z,100
2022-08-07T00:55:10.827Z,100
2022-08-07T00:56:03.908Z,100
2022-08-07T00:57:01.714Z,100
2022-08-07T00:58:01.810Z,100
2022-08-07T00:59:02.068Z,100
2022-08-07T01:00:02.537Z,100
2022-08-07T01:01:02.288Z,100
2022-08-07T01:02:01.763Z,100
2022-08-07T01:03:02.041Z,100
2022-08-07T01:04:01.893Z,100
2022-08-07T01:05:02.587Z,100
2022-08-07T01:06:02.404Z,100
2022-08-07T01:07:03.468Z,100
2022-08-07T01:08:02.437Z,100
2022-08-07T01:09:03.176Z,100
2022-08-07T01:10:11.384Z,100
2022-08-07T01:12:29.380Z,100
2022-08-07T01:12:30.686Z,100
2022-08-07T01:13:02.987Z,100
2022-08-07T01:14:02.492Z,100
2022-08-07T01:15:04.546Z,100
2022-08-07T01:16:06.086Z,100
2022-08-07T01:17:07.379Z,100
2022-08-07T01:18:02.218Z,100
2022-08-07T01:19:04.106Z,100
2022-08-07T01:20:02.047Z,100
2022-08-07T01:21:02.487Z,100
2022-08-07T01:22:03.625Z,100
2022-08-07T01:23:13.096Z,100
2022-08-07T01:24:04.047Z,100
2022-08-07T01:25:40.796Z,100
2022-08-07T01:26:02.158Z,100
2022-08-07T01:27:01.998Z,100
2022-08-07T01:28:01.858Z,100
2022-08-07T01:29:01.723Z,100
2022-08-07T01:30:01.612Z,100
2022-08-07T01:31:03.167Z,100
2022-08-07T01:32:12.494Z,100
2022-08-07T01:33:02.618Z,100
2022-08-07T01:34:04.247Z,100
2022-08-07T01:35:03.632Z,100
2022-08-07T01:36:07.520Z,100
2022-08-07T01:37:01.673Z,100
2022-08-07T01:38:01.857Z,100
2022-08-07T01:39:10.610Z,100
2022-08-07T01:40:01.844Z,100
2022-08-07T01:41:01.901Z,100
2022-08-07T01:42:40.440Z,100
2022-08-07T01:43:03.577Z,100
2022-08-07T01:44:02.415Z,100
2022-08-07T01:45:02.906Z,100
2022-08-07T01:46:02.102Z,100
2022-08-07T01:48:19.824Z,100
2022-08-07T01:48:29.946Z,100
2022-08-07T01:49:02.985Z,100
2022-08-07T01:50:02.012Z,100
2022-08-07T01:52:01.448Z,100
2022-08-07T01:52:05.116Z,100
2022-08-07T01:53:09.163Z,100
2022-08-07T01:54:13.157Z,100
2022-08-07T01:55:04.098Z,100
2022-08-07T01:56:02.146Z,100
2022-08-07T01:57:03.613Z,100
2022-08-07T01:58:29.337Z,100
2022-08-07T01:59:02.444Z,100
2022-08-07T02:00:03.358Z,100
2022-08-07T02:01:59.608Z,100
2022-08-07T02:02:06.093Z,100
2022-08-07T02:03:26.598Z,100
2022-08-07T02:04:04.671Z,100
2022-08-07T02:05:05.108Z,100
2022-08-07T02:06:01.923Z,100
2022-08-07T02:07:03.980Z,100
2022-08-07T02:08:01.621Z,100
2022-08-07T02:09:04.719Z,100
2022-08-07T02:10:01.569Z,100
2022-08-07T02:11:03.877Z,100
2022-08-07T02:12:06.041Z,100
2022-08-07T02:13:02.161Z,100
2022-08-07T02:14:02.988Z,100
2022-08-07T02:15:07.107Z,100
2022-08-07T02:16:01.720Z,100
2022-08-07T02:17:03.398Z,100
2022-08-07T02:18:02.258Z,100
2022-08-07T02:20:03.741Z,100
2022-08-07T02:20:09.786Z,100
2022-08-07T02:21:06.670Z,100
2022-08-07T02:22:07.992Z,100
2022-08-07T02:23:02.313Z,100
2022-08-07T02:24:02.101Z,100
2022-08-07T02:25:13.698Z,100
2022-08-07T02:26:34.563Z,100
2022-08-07T02:27:03.037Z,100
2022-08-07T02:28:07.158Z,100
2022-08-07T02:29:01.768Z,100
2022-08-07T02:30:07.241Z,100
2022-08-07T02:31:29.262Z,100
2022-08-07T02:32:04.050Z,100
2022-08-07T02:33:10.501Z,100
2022-08-07T02:34:17.132Z,100
2022-08-07T02:35:06.419Z,100
2022-08-07T02:36:33.142Z,100
2022-08-07T02:37:08.418Z,100
2022-08-07T02:38:02.398Z,100
2022-08-07T02:39:42.703Z,100
2022-08-07T02:40:34.981Z,100
2022-08-07T02:41:04.558Z,100
2022-08-07T02:42:02.831Z,100
2022-08-07T02:43:08.320Z,100
2022-08-07T02:44:02.139Z,100
2022-08-07T02:46:01.000Z,100
2022-08-07T02:46:03.907Z,100
2022-08-07T02:47:02.037Z,100
2022-08-07T02:48:02.246Z,100
2022-08-07T02:49:03.630Z,100
2022-08-07T02:50:03.476Z,100
2022-08-07T02:51:02.340Z,100
2022-08-07T02:52:03.640Z,100
2022-08-07T02:53:06.519Z,100
2022-08-07T02:54:02.294Z,100
2022-08-07T02:55:04.097Z,100
2022-08-07T02:56:06.487Z,100
2022-08-07T02:57:06.505Z,100
2022-08-07T02:58:02.505Z,100
2022-08-07T02:59:01.880Z,100
2022-08-07T03:00:10.504Z,100
2022-08-07T03:01:03.501Z,100
2022-08-07T03:02:02.820Z,100
2022-08-07T03:03:06.299Z,100
2022-08-07T03:04:07.870Z,100
2022-08-07T03:05:06.709Z,100
2022-08-07T03:06:03.788Z,100
2022-08-07T03:07:10.805Z,100
2022-08-07T03:08:10.416Z,100
2022-08-07T03:09:01.614Z,100
2022-08-07T03:10:03.119Z,100
2022-08-07T03:11:02.997Z,100
2022-08-07T03:12:03.253Z,100
2022-08-07T03:13:04.644Z,100
2022-08-07T03:14:02.473Z,100
2022-08-07T03:15:08.173Z,100
2022-08-07T03:16:03.990Z,100
2022-08-07T03:17:04.887Z,100
2022-08-07T03:18:01.765Z,100
2022-08-07T03:19:01.796Z,100
2022-08-07T03:20:01.625Z,100
2022-08-07T03:21:03.207Z,100
2022-08-07T03:22:02.072Z,100
2022-08-07T03:23:01.926Z,100
2022-08-07T03:24:28.010Z,100
2022-08-07T03:25:01.958Z,100
2022-08-07T03:26:01.805Z,100
2022-08-07T03:27:03.303Z,100
2022-08-07T03:28:39.677Z,100
2022-08-07T03:29:02.601Z,100
2022-08-07T03:30:04.800Z,100
2022-08-07T03:31:08.778Z,100
2022-08-07T03:32:03.717Z,100
2022-08-07T03:33:03.531Z,100
2022-08-07T03:34:01.596Z,100
2022-08-07T03:35:18.805Z,100
2022-08-07T03:36:02.698Z,100
2022-08-07T03:37:12.866Z,100
2022-08-07T03:38:04.982Z,100
2022-08-07T03:39:05.938Z,100
2022-08-07T03:40:17.118Z,100
2022-08-07T03:41:03.679Z,100
2022-08-07T03:42:02.125Z,100
2022-08-07T03:43:03.091Z,100
2022-08-07T03:44:02.750Z,100
2022-08-07T03:45:01.806Z,100
2022-08-07T03:46:03.140Z,100
2022-08-07T03:47:14.764Z,100
2022-08-07T03:48:01.698Z,100
2022-08-07T03:49:03.595Z,100
2022-08-07T03:50:02.487Z,100
2022-08-07T03:51:03.266Z,100
2022-08-07T03:52:02.364Z,100
2022-08-07T03:53:02.223Z,100
2022-08-07T03:54:54.050Z,100
2022-08-07T03:55:07.913Z,100
2022-08-07T03:56:05.104Z,100
2022-08-07T03:57:07.647Z,100
2022-08-07T03:59:09.037Z,100
2022-08-07T03:59:12.859Z,100
2022-08-07T04:00:04.475Z,100
2022-08-07T04:01:02.505Z,100
2022-08-07T04:02:02.428Z,100
2022-08-07T04:03:05.160Z,100
2022-08-07T04:04:05.846Z,100
2022-08-07T04:05:02.180Z,100
2022-08-07T04:06:03.316Z,100
2022-08-07T04:07:17.414Z,100
2022-08-07T04:08:02.309Z,100
2022-08-07T04:09:03.036Z,100
2022-08-07T04:10:03.255Z,100
2022-08-07T04:12:28.630Z,100
2022-08-07T04:12:28.692Z,100
2022-08-07T04:13:02.801Z,100
2022-08-07T04:14:36.907Z,100
2022-08-07T04:15:05.245Z,100
2022-08-07T04:16:02.895Z,100
2022-08-07T04:17:04.039Z,100
2022-08-07T04:19:01.495Z,100
2022-08-07T04:19:14.907Z,100
2022-08-07T04:20:01.602Z,100
2022-08-07T04:21:02.696Z,100
2022-08-07T04:22:17.289Z,100
2022-08-07T04:23:06.775Z,100
2022-08-07T04:24:08.004Z,100
2022-08-07T04:25:02.494Z,100
2022-08-07T04:26:03.890Z,100
2022-08-07T04:27:01.722Z,100
2022-08-07T04:28:01.931Z,100
2022-08-07T04:29:03.383Z,100
2022-08-07T04:30:06.544Z,100
2022-08-07T04:31:03.992Z,100
2022-08-07T04:32:11.094Z,100
2022-08-07T04:33:07.719Z,100
2022-08-07T04:34:02.146Z,100
2022-08-07T04:35:05.483Z,100
2022-08-07T04:36:06.872Z,100
2022-08-07T04:37:01.725Z,100
2022-08-07T04:38:07.625Z,100
2022-08-07T04:39:01.747Z,100
2022-08-07T04:40:02.313Z,100
2022-08-07T04:41:03.315Z,100
2022-08-07T04:42:02.169Z,100
2022-08-07T04:43:03.954Z,100
2022-08-07T04:44:18.364Z,100
2022-08-07T04:45:07.960Z,100
2022-08-07T04:46:02.552Z,100
2022-08-07T04:47:08.858Z,100
2022-08-07T04:48:11.063Z,100
2022-08-07T04:49:01.957Z,100
2022-08-07T04:50:04.788Z,100
2022-08-07T04:51:03.669Z,100
2022-08-07T04:52:03.067Z,100
2022-08-07T04:53:03.444Z,100
2022-08-07T04:54:06.910Z,100
2022-08-07T04:58:07.187Z,100
2022-08-07T04:58:29.457Z,100
2022-08-07T04:58:33.805Z,100
2022-08-07T04:58:47.321Z,100
2022-08-07T05:00:17.165Z,100
2022-08-07T05:00:18.626Z,100
2022-08-07T05:01:02.946Z,100
2022-08-07T05:02:01.884Z,100
2022-08-07T05:03:01.744Z,100
2022-08-07T05:04:08.954Z,100
2022-08-07T05:05:01.751Z,100
2022-08-07T05:06:20.385Z,100
2022-08-07T05:07:20.935Z,100
2022-08-07T05:08:01.565Z,100
2022-08-07T05:09:02.880Z,100
2022-08-07T05:10:04.950Z,100
2022-08-07T05:11:02.896Z,100
2022-08-07T05:12:02.867Z,100
2022-08-07T05:14:59.342Z,100
2022-08-07T05:15:03.412Z,100
2022-08-07T05:15:05.436Z,100
2022-08-07T05:16:05.137Z,100
2022-08-07T05:17:11.794Z,100
2022-08-07T05:18:10.344Z,100
2022-08-07T05:19:02.455Z,100
2022-08-07T05:20:10.068Z,100
2022-08-07T05:21:04.306Z,100
2022-08-07T05:22:05.085Z,100
2022-08-07T05:23:02.420Z,100
2022-08-07T05:24:02.246Z,100
2022-08-07T05:25:11.524Z,100
2022-08-07T05:26:18.991Z,100
2022-08-07T05:27:02.409Z,100
2022-08-07T05:28:23.190Z,100
2022-08-07T05:29:04.657Z,100
2022-08-07T05:30:02.571Z,100
2022-08-07T05:31:03.923Z,100
2022-08-07T05:32:03.713Z,100
2022-08-07T05:33:03.513Z,100
2022-08-07T05:34:12.025Z,100
2022-08-07T05:35:02.530Z,100
2022-08-07T05:36:04.213Z,100
2022-08-07T05:37:05.964Z,100
2022-08-07T05:38:09.668Z,100
2022-08-07T05:40:16.590Z,100
2022-08-07T05:40:19.007Z,100
2022-08-07T05:41:14.613Z,100
2022-08-07T05:42:10.272Z,100
2022-08-07T05:43:03.010Z,100
2022-08-07T05:44:13.141Z,100
2022-08-07T05:45:47.248Z,100
2022-08-07T05:46:02.418Z,100
2022-08-07T05:47:19.042Z,100
2022-08-07T05:48:03.632Z,100
2022-08-07T05:49:13.061Z,100
2022-08-07T05:50:01.714Z,100
2022-08-07T05:51:03.644Z,100
2022-08-07T05:52:03.348Z,100
2022-08-07T05:53:01.615Z,100
2022-08-07T05:54:31.665Z,100
2022-08-07T05:55:11.245Z,100
2022-08-07T05:56:06.230Z,100
2022-08-07T05:57:03.715Z,100
2022-08-07T05:58:02.897Z,100
2022-08-07T05:59:02.367Z,100
2022-08-07T06:00:01.845Z,100
2022-08-07T06:01:05.857Z,100
2022-08-07T06:02:03.492Z,100
2022-08-07T06:03:04.444Z,100
2022-08-07T06:04:02.472Z,100
2022-08-07T06:05:03.848Z,100
2022-08-07T06:06:02.286Z,100
2022-08-07T06:07:04.657Z,100
2022-08-07T06:08:30.532Z,100
2022-08-07T06:09:05.297Z,100
2022-08-07T06:10:06.319Z,100
2022-08-07T06:11:04.245Z,100
2022-08-07T06:12:02.068Z,100
2022-08-07T06:13:02.673Z,100
2022-08-07T06:14:21.056Z,100
2022-08-07T06:15:06.032Z,100
2022-08-07T06:16:02.370Z,100
2022-08-07T06:17:07.505Z,100
2022-08-07T06:18:02.666Z,100
2022-08-07T06:19:01.762Z,100
2022-08-07T06:20:04.820Z,100
2022-08-07T06:22:23.660Z,100
2022-08-07T06:22:27.218Z,100
2022-08-07T06:24:46.169Z,100
2022-08-07T06:24:56.963Z,100
2022-08-07T06:25:03.281Z,100
2022-08-07T06:26:02.311Z,100
2022-08-07T06:27:04.125Z,100
2022-08-07T06:28:03.320Z,100
2022-08-07T06:29:01.842Z,100
2022-08-07T06:30:02.602Z,100
2022-08-07T06:31:03.995Z,100
2022-08-07T06:32:04.784Z,100
2022-08-07T06:33:01.621Z,100
2022-08-07T06:34:02.419Z,100
2022-08-07T06:35:17.662Z,100
2022-08-07T06:36:14.227Z,100
2022-08-07T06:37:02.979Z,100
2022-08-07T06:38:01.919Z,100
2022-08-07T06:40:20.931Z,100
2022-08-07T06:40:20.941Z,100
2022-08-07T06:41:02.068Z,100
2022-08-07T06:42:04.216Z,100
2022-08-07T06:43:02.566Z,100
2022-08-07T06:44:11.080Z,100
2022-08-07T06:45:02.200Z,100
2022-08-07T06:46:01.903Z,100
2022-08-07T06:47:15.253Z,100
2022-08-07T06:48:02.435Z,100
2022-08-07T06:49:04.741Z,100
2022-08-07T06:50:04.251Z,100
2022-08-07T06:51:09.520Z,100
2022-08-07T06:52:10.478Z,100
2022-08-07T06:53:04.655Z,100
2022-08-07T06:55:47.499Z,100
2022-08-07T06:55:48.272Z,100
2022-08-07T06:56:02.440Z,100
2022-08-07T06:57:02.323Z,100
2022-08-07T06:58:01.854Z,100
2022-08-07T07:00:17.905Z,100
2022-08-07T07:00:18.220Z,100
2022-08-07T07:01:03.320Z,100
2022-08-07T07:02:03.291Z,100
2022-08-07T07:03:14.470Z,100
2022-08-07T07:04:33.983Z,100
2022-08-07T07:05:02.255Z,100
2022-08-07T07:06:06.188Z,100
2022-08-07T07:07:10.605Z,100
2022-08-07T07:08:12.607Z,100
2022-08-07T07:09:03.983Z,100
2022-08-07T07:10:02.038Z,100
2022-08-07T07:12:07.069Z,100
2022-08-07T07:12:13.934Z,100
2022-08-07T07:13:02.678Z,100
2022-08-07T07:14:02.997Z,100
2022-08-07T07:15:03.867Z,100
2022-08-07T07:16:02.022Z,100
2022-08-07T07:17:03.515Z,100
2022-08-07T07:18:05.780Z,100
2022-08-07T07:19:54.997Z,100
2022-08-07T07:20:03.188Z,100
2022-08-07T07:21:04.334Z,100
2022-08-07T07:22:34.234Z,100
2022-08-07T07:24:12.438Z,100
2022-08-07T07:24:12.736Z,100
2022-08-07T07:26:33.676Z,100
2022-08-07T07:26:37.312Z,100
2022-08-07T07:27:04.112Z,100
2022-08-07T07:28:07.705Z,100
2022-08-07T07:30:08.788Z,100
2022-08-07T07:30:12.396Z,100
2022-08-07T07:31:03.151Z,100
2022-08-07T07:32:01.986Z,100
2022-08-07T07:33:01.876Z,100
2022-08-07T07:34:01.829Z,100
2022-08-07T07:35:04.361Z,100
2022-08-07T07:36:12.528Z,100
2022-08-07T07:37:44.304Z,100
2022-08-07T07:38:05.849Z,100
2022-08-07T07:39:03.420Z,100
2022-08-07T07:40:02.477Z,100
2022-08-07T07:41:02.751Z,100
2022-08-07T07:42:17.594Z,100
2022-08-07T07:43:27.388Z,100
2022-08-07T07:44:25.938Z,100
2022-08-07T07:45:02.847Z,100
2022-08-07T07:46:55.929Z,100
2022-08-07T07:47:23.973Z,100
2022-08-07T07:48:02.023Z,100
2022-08-07T07:50:37.936Z,100
2022-08-07T07:50:39.266Z,100
2022-08-07T07:51:02.410Z,100
2022-08-07T07:52:03.623Z,100
2022-08-07T07:53:01.688Z,100
2022-08-07T07:54:02.921Z,100
2022-08-07T07:55:04.532Z,100
2022-08-07T07:56:04.274Z,100
2022-08-07T07:57:03.378Z,100
2022-08-07T07:58:02.469Z,100
2022-08-07T07:59:02.402Z,100
2022-08-07T08:00:02.446Z,100
2022-08-07T08:02:05.340Z,100
2022-08-07T08:02:10.952Z,100
2022-08-07T08:03:07.025Z,100
2022-08-07T08:04:11.900Z,100
2022-08-07T08:05:03.566Z,100
2022-08-07T08:06:03.114Z,100
2022-08-07T08:07:07.869Z,100
2022-08-07T08:08:02.429Z,100
2022-08-07T08:09:02.019Z,100
2022-08-07T08:10:05.982Z,100
2022-08-07T08:11:03.989Z,100
2022-08-07T08:12:06.044Z,100
2022-08-07T08:13:03.393Z,100
2022-08-07T08:14:02.638Z,100
2022-08-07T08:15:07.225Z,100
2022-08-07T08:16:02.649Z,100
2022-08-07T08:17:58.646Z,100
2022-08-07T08:18:18.481Z,100
2022-08-07T08:20:20.077Z,100
2022-08-07T08:20:26.329Z,100
2022-08-07T08:21:02.799Z,100
2022-08-07T08:22:04.151Z,100
2022-08-07T08:23:02.316Z,100
2022-08-07T08:24:02.151Z,100
2022-08-07T08:25:41.761Z,100
2022-08-07T08:26:07.366Z,100
2022-08-07T08:27:09.687Z,100
2022-08-07T08:28:04.199Z,100
2022-08-07T08:29:03.449Z,100
2022-08-07T08:30:04.057Z,100
2022-08-07T08:31:05.398Z,100
2022-08-07T08:32:25.293Z,100
2022-08-07T08:33:03.250Z,100
2022-08-07T08:34:03.383Z,100
2022-08-07T08:35:03.241Z,100
2022-08-07T08:36:02.214Z,100
2022-08-07T08:37:02.841Z,100
2022-08-07T08:38:08.174Z,100
2022-08-07T08:39:03.151Z,100
2022-08-07T08:40:02.273Z,100
2022-08-07T08:41:03.186Z,100
2022-08-07T08:42:02.703Z,100
2022-08-07T08:43:02.408Z,100
2022-08-07T08:44:02.264Z,100
2022-08-07T08:45:04.692Z,100
2022-08-07T08:46:01.408Z,100
2022-08-07T08:47:02.309Z,100
2022-08-07T08:48:04.548Z,100
2022-08-07T08:49:05.377Z,100
2022-08-07T08:50:06.147Z,100
2022-08-07T08:51:03.678Z,100
2022-08-07T08:52:16.875Z,100
2022-08-07T08:53:01.854Z,100
2022-08-07T08:54:02.310Z,100
2022-08-07T08:55:08.064Z,100
2022-08-07T08:56:01.698Z,100
2022-08-07T08:57:02.539Z,100
2022-08-07T08:58:04.294Z,100
2022-08-07T08:59:12.674Z,100
2022-08-07T09:00:02.015Z,100
2022-08-07T09:01:16.238Z,100
2022-08-07T09:02:02.821Z,96
2022-08-07T09:03:07.817Z,95
2022-08-07T09:04:02.135Z,96
2022-08-07T09:05:02.033Z,97
2022-08-07T09:06:02.493Z,100
2022-08-07T09:07:03.582Z,99
2022-08-07T09:08:03.393Z,92
2022-08-07T09:09:13.610Z,99
2022-08-07T09:10:03.737Z,96
2022-08-07T09:11:01.924Z,91
2022-08-07T09:12:31.988Z,90
2022-08-07T09:13:02.384Z,89
2022-08-07T09:14:01.756Z,89
2022-08-07T09:16:29.614Z,88
2022-08-07T09:16:30.094Z,87
2022-08-07T09:17:02.251Z,88
2022-08-07T09:18:15.867Z,90
2022-08-07T09:19:44.653Z,88
2022-08-07T09:20:36.042Z,88
2022-08-07T09:21:02.005Z,89
2022-08-07T09:24:54.604Z,88
2022-08-07T09:24:59.515Z,89
2022-08-07T09:25:00.840Z,89
2022-08-07T09:25:14.939Z,89
2022-08-07T09:26:01.897Z,90
2022-08-07T09:27:13.452Z,90
2022-08-07T09:28:03.338Z,91
2022-08-07T09:30:08.213Z,90
2022-08-07T09:30:09.200Z,90
2022-08-07T09:31:03.339Z,93
2022-08-07T09:32:02.126Z,92
2022-08-07T09:33:16.385Z,93
2022-08-07T09:34:02.270Z,94
2022-08-07T09:36:01.801Z,98
2022-08-07T09:36:06.421Z,99
2022-08-07T09:37:02.357Z,100
2022-08-07T09:38:02.179Z,95
2022-08-07T09:39:18.106Z,97
2022-08-07T09:40:02.004Z,98
2022-08-07T09:41:03.782Z,90
2022-08-07T09:42:07.985Z,86
2022-08-07T09:43:01.609Z,87
2022-08-07T09:44:10.295Z,84
2022-08-07T09:48:00.918Z,84
2022-08-07T09:48:03.877Z,86
2022-08-07T09:48:05.119Z,85
2022-08-07T09:50:18.815Z,83
2022-08-07T09:50:20.037Z,80
2022-08-07T09:51:02.630Z,80
2022-08-07T09:52:34.724Z,80
2022-08-07T09:53:02.158Z,79
2022-08-07T09:54:03.557Z,82
2022-08-07T09:55:02.754Z,80
2022-08-07T09:56:05.196Z,81
2022-08-07T09:57:03.889Z,80
2022-08-07T09:58:02.368Z,84
2022-08-07T09:59:13.968Z,84
2022-08-07T10:00:03.548Z,83
2022-08-07T10:01:01.845Z,84
2022-08-07T10:02:01.956Z,80
2022-08-07T10:04:12.353Z,76
2022-08-07T10:04:15.906Z,78
2022-08-07T10:05:14.172Z,80
2022-08-07T10:06:07.698Z,79
2022-08-07T10:07:03.639Z,76
2022-08-07T10:08:04.385Z,79
2022-08-07T10:09:01.780Z,80
2022-08-07T10:10:03.494Z,82
2022-08-07T10:12:03.534Z,80
2022-08-07T10:12:18.304Z,78
2022-08-07T10:13:03.843Z,81
2022-08-07T10:14:03.175Z,78
2022-08-07T10:15:03.253Z,79
2022-08-07T10:16:05.235Z,73
2022-08-07T10:17:02.111Z,73
2022-08-07T10:18:03.919Z,72
2022-08-07T10:19:01.796Z,78
2022-08-07T10:20:02.276Z,77
2022-08-07T10:21:02.085Z,75
2022-08-07T10:22:17.079Z,76
2022-08-07T10:23:07.823Z,78
2022-08-07T10:24:08.723Z,79
2022-08-07T10:25:02.135Z,81
2022-08-07T10:26:01.872Z,81
2022-08-07T10:27:10.385Z,79
2022-08-07T10:28:02.774Z,78
2022-08-07T10:29:01.636Z,79
2022-08-07T10:30:02.485Z,81
2022-08-07T10:31:11.096Z,81
2022-08-07T10:32:04.422Z,82
2022-08-07T10:33:02.057Z,83
2022-08-07T10:34:15.654Z,80
2022-08-07T10:35:12.380Z,81
2022-08-07T10:36:12.684Z,82
2022-08-07T10:37:05.026Z,80
2022-08-07T10:38:49.674Z,80
2022-08-07T10:39:05.741Z,81
2022-08-07T10:40:09.343Z,79
2022-08-07T10:41:01.592Z,78
2022-08-07T10:42:21.548Z,78
2022-08-07T10:43:02.274Z,77
2022-08-07T10:44:08.114Z,82
2022-08-07T10:45:02.069Z,76
2022-08-07T10:46:02.191Z,76
2022-08-07T10:47:06.005Z,76
2022-08-07T10:48:04.513Z,75
2022-08-07T10:49:02.298Z,75
2022-08-07T10:50:02.212Z,75
2022-08-07T10:51:04.236Z,75
2022-08-07T10:52:14.212Z,75
2022-08-07T10:53:08.994Z,75
2022-08-07T10:54:01.996Z,73
2022-08-07T10:55:38.406Z,74
2022-08-07T10:56:02.588Z,74
2022-08-07T10:57:01.725Z,73
2022-08-07T10:58:02.423Z,71
2022-08-07T10:59:01.804Z,66
2022-08-07T11:00:01.860Z,64
2022-08-07T11:01:12.425Z,65
2022-08-07T11:02:27.421Z,65
2022-08-07T11:03:02.015Z,63
2022-08-07T11:04:32.403Z,61
2022-08-07T11:05:10.926Z,61
2022-08-07T11:06:05.094Z,62
2022-08-07T11:07:02.496Z,66
2022-08-07T11:08:03.817Z,66
2022-08-07T11:09:02.387Z,62
2022-08-07T11:10:11.205Z,63
2022-08-07T11:11:02.202Z,64
2022-08-07T11:12:02.037Z,63
2022-08-07T11:13:02.850Z,63
2022-08-07T11:14:57.177Z,63
2022-08-07T11:15:01.833Z,62
2022-08-07T11:16:07.489Z,62
2022-08-07T11:17:08.943Z,64
2022-08-07T11:18:04.700Z,63
2022-08-07T11:19:02.935Z,64
2022-08-07T11:20:03.608Z,63
2022-08-07T11:21:04.224Z,63
2022-08-07T11:22:03.599Z,62
2022-08-07T11:23:02.468Z,63
2022-08-07T11:24:02.578Z,62
2022-08-07T11:25:07.273Z,65
2022-08-07T11:26:06.754Z,64
2022-08-07T11:27:01.606Z,65
2022-08-07T11:28:05.086Z,64
2022-08-07T11:29:13.397Z,63
2022-08-07T11:30:19.341Z,63
2022-08-07T11:31:02.096Z,62
2022-08-07T11:32:02.551Z,65
2022-08-07T11:33:14.109Z,63
2022-08-07T11:34:04.172Z,65
2022-08-07T11:35:02.616Z,62
2022-08-07T11:36:09.996Z,62
2022-08-07T11:37:02.600Z,62
2022-08-07T11:38:17.262Z,61
2022-08-07T11:39:03.973Z,63
2022-08-07T11:40:04.223Z,61
2022-08-07T11:41:03.603Z,67
2022-08-07T11:42:03.584Z,61
2022-08-07T11:43:02.047Z,61
2022-08-07T11:44:18.404Z,60
2022-08-07T11:45:03.770Z,61
2022-08-07T11:46:02.143Z,63
2022-08-07T11:47:02.958Z,64
2022-08-07T11:48:09.588Z,64
2022-08-07T11:50:32.127Z,64
2022-08-07T11:50:33.425Z,64
2022-08-07T11:51:04.028Z,65
2022-08-07T11:52:03.429Z,64
2022-08-07T11:53:05.433Z,63
2022-08-07T11:54:10.578Z,64
2022-08-07T11:55:19.194Z,65
2022-08-07T11:56:28.175Z,64
2022-08-07T11:57:02.301Z,64
2022-08-07T11:58:02.167Z,60
2022-08-07T11:59:02.543Z,59
2022-08-07T12:00:19.421Z,57
2022-08-07T12:01:06.765Z,56
2022-08-07T12:02:01.833Z,55
2022-08-07T12:03:01.888Z,56
2022-08-07T12:04:02.634Z,57
2022-08-07T12:05:02.683Z,59
2022-08-07T12:06:44.800Z,58
2022-08-07T12:07:18.930Z,57
2022-08-07T12:08:04.366Z,58
2022-08-07T12:09:03.111Z,59
2022-08-07T12:10:06.947Z,60
2022-08-07T12:11:22.400Z,62
2022-08-07T12:12:12.248Z,62
2022-08-07T12:13:17.000Z,63
2022-08-07T12:14:02.293Z,62
2022-08-07T12:15:03.890Z,61
2022-08-07T12:16:09.396Z,62
2022-08-07T12:17:04.573Z,58
2022-08-07T12:18:11.179Z,55
2022-08-07T12:19:02.306Z,55
2022-08-07T12:20:10.490Z,56
2022-08-07T12:21:02.389Z,56
2022-08-07T12:22:56.589Z,61
2022-08-07T12:23:09.415Z,63
2022-08-07T12:24:37.121Z,64
2022-08-07T12:25:07.627Z,63
2022-08-07T12:26:29.217Z,64
2022-08-07T12:27:03.561Z,63
2022-08-07T12:28:11.053Z,62
2022-08-07T12:29:03.904Z,65
2022-08-07T12:30:01.770Z,63
2022-08-07T12:31:02.524Z,66
2022-08-07T12:32:05.801Z,62
2022-08-07T12:33:23.615Z,63
2022-08-07T12:34:04.492Z,62
2022-08-07T12:35:07.272Z,62
2022-08-07T12:36:02.782Z,62
2022-08-07T12:37:16.690Z,64
2022-08-07T12:38:16.911Z,63
2022-08-07T12:39:02.499Z,63
2022-08-07T12:40:02.282Z,63
2022-08-07T12:41:02.343Z,62
2022-08-07T12:42:02.835Z,61
2022-08-07T12:43:03.156Z,60
2022-08-07T12:44:09.320Z,59
2022-08-07T12:45:06.527Z,59
2022-08-07T12:46:04.111Z,59
2022-08-07T12:47:06.509Z,59
2022-08-07T12:48:02.321Z,57
2022-08-07T12:49:26.028Z,56
2022-08-07T12:50:34.704Z,57
2022-08-07T12:51:17.527Z,55
2022-08-07T12:52:14.791Z,55
2022-08-07T12:53:18.729Z,58
2022-08-07T12:54:37.556Z,57
2022-08-07T12:55:09.918Z,59
2022-08-07T12:56:04.026Z,57
2022-08-07T12:57:10.315Z,58
2022-08-07T12:58:03.094Z,57
2022-08-07T12:59:02.017Z,56
2022-08-07T13:00:01.880Z,55
2022-08-07T13:01:02.725Z,51
2022-08-07T13:02:01.705Z,55
2022-08-07T13:03:07.339Z,53
2022-08-07T13:04:05.485Z,53
2022-08-07T13:05:10.366Z,54
2022-08-07T13:06:27.025Z,51
2022-08-07T13:07:02.540Z,53
2022-08-07T13:08:18.673Z,47
2022-08-07T13:10:17.412Z,46
2022-08-07T13:10:40.973Z,49
2022-08-07T13:11:03.273Z,49
2022-08-07T13:12:15.498Z,49
2022-08-07T13:13:01.789Z,50
2022-08-07T13:14:02.660Z,52
2022-08-07T13:15:02.517Z,53
2022-08-07T13:16:02.435Z,53
2022-08-07T13:17:02.257Z,52
2022-08-07T13:18:01.896Z,53
2022-08-07T13:19:02.811Z,53
2022-08-07T13:20:03.592Z,53
2022-08-07T13:21:03.948Z,54
2022-08-07T13:22:26.942Z,58
2022-08-07T13:24:04.010Z,55
2022-08-07T13:24:04.964Z,56
2022-08-07T13:25:02.844Z,56
2022-08-07T13:26:01.826Z,56
2022-08-07T13:27:05.687Z,60
2022-08-07T13:28:18.503Z,57
2022-08-07T13:29:01.912Z,57
2022-08-07T13:30:04.058Z,55
2022-08-07T13:31:13.794Z,55
2022-08-07T13:32:35.317Z,54
2022-08-07T13:33:03.454Z,54
2022-08-07T13:34:36.038Z,52
2022-08-07T13:35:09.179Z,51
2022-08-07T13:36:06.055Z,48
2022-08-07T13:37:19.698Z,50
2022-08-07T13:38:02.402Z,47
2022-08-07T13:39:02.240Z,47
2022-08-07T13:40:42.585Z,47
2022-08-07T13:41:02.698Z,48
2022-08-07T13:42:02.479Z,48
2022-08-07T13:43:03.062Z,49
2022-08-07T13:44:02.604Z,49
2022-08-07T13:46:24.638Z,49
2022-08-07T13:46:28.208Z,48
2022-08-07T13:47:09.258Z,49
2022-08-07T13:48:10.592Z,48
2022-08-07T13:49:02.108Z,49
2022-08-07T13:50:45.351Z,50
2022-08-07T13:52:05.653Z,52
2022-08-07T13:52:36.435Z,52
2022-08-07T13:53:01.906Z,50
2022-08-07T13:54:03.822Z,49
2022-08-07T13:55:01.712Z,49
2022-08-07T13:56:02.185Z,49
2022-08-07T13:57:04.045Z,48